Time;durP1;ratioP1;P1;durP2;ratioP2;P2;SDS_P1;SDS_P2;PMS_P1;PMS_P2;Temp;Humidity;BMP_temperature;BMP_pressure;BME280_temperature;BME280_humidity;BME280_pressure;Samples;Min_cycle;Max_cycle;Signal;HPM_P1;HPM_P2
2022/10/02 00:01:18;;;;;;;16.52;12.57;;;;;;;17.96;100.00;99436.84;5068267;28;20444;-30
2022/10/02 00:03:44;;;;;;;20.17;13.82;;;;;;;17.94;100.00;99453.34;5067932;28;20029;-29
2022/10/02 00:06:20;;;;;;;18.45;14.13;;;;;;;17.92;100.00;99425.00;5049801;28;20177;-28
2022/10/02 00:08:48;;;;;;;22.67;14.43;;;;;;;17.77;100.00;99413.22;5067830;28;20457;-37
2022/10/02 00:11:33;;;;;;;18.52;13.23;;;;;;;17.64;100.00;99422.78;5050197;28;20458;-29
2022/10/02 00:14:03;;;;;;;18.80;13.38;;;;;;;17.57;100.00;99405.31;5049849;28;20044;-28
2022/10/02 00:16:32;;;;;;;19.38;14.27;;;;;;;17.73;100.00;99397.91;5067780;28;20036;-28
2022/10/02 00:18:58;;;;;;;21.98;13.43;;;;;;;18.05;100.00;99390.09;5067825;28;20047;-32
2022/10/02 00:22:01;;;;;;;18.75;13.10;;;;;;;18.16;100.00;99363.81;5068050;28;20489;-29
2022/10/02 00:24:38;;;;;;;21.80;13.38;;;;;;;18.20;100.00;99328.97;5036083;28;20050;-29
2022/10/02 00:27:36;;;;;;;18.17;12.20;;;;;;;18.22;100.00;99338.38;5067866;28;20032;-29
2022/10/02 00:30:04;;;;;;;17.05;11.75;;;;;;;18.23;100.00;99364.28;5067542;28;20024;-28
2022/10/02 00:32:38;;;;;;;17.88;12.30;;;;;;;18.27;100.00;99405.81;5067576;28;20028;-29
2022/10/02 00:35:21;;;;;;;20.77;12.68;;;;;;;18.21;100.00;99416.94;5067436;28;20499;-29
2022/10/02 00:37:59;;;;;;;17.85;12.20;;;;;;;18.07;100.00;99414.91;5067262;28;20020;-30
2022/10/02 00:40:33;;;;;;;18.90;12.20;;;;;;;18.09;100.00;99425.41;5067561;28;20098;-29
2022/10/02 00:43:28;;;;;;;18.77;12.00;;;;;;;18.10;100.00;99447.78;5049766;28;20037;-30
2022/10/02 00:45:57;;;;;;;16.40;11.45;;;;;;;18.06;100.00;99458.34;5067446;28;20051;-30
2022/10/02 00:48:41;;;;;;;15.65;9.75;;;;;;;17.73;100.00;99446.44;5067358;28;20029;-30
2022/10/02 00:51:25;;;;;;;21.25;12.02;;;;;;;17.54;100.00;99455.22;5067473;28;20496;-31
2022/10/02 00:54:24;;;;;;;22.85;12.57;;;;;;;17.40;100.00;99473.09;5067121;28;20035;-28
2022/10/02 00:57:16;;;;;;;23.92;13.38;;;;;;;17.39;100.00;99476.88;5049277;28;20039;-32
2022/10/02 01:00:07;;;;;;;22.00;13.68;;;;;;;17.48;100.00;99472.50;5067388;28;20033;-28
2022/10/02 01:02:57;;;;;;;19.92;13.55;;;;;;;17.56;100.00;99477.31;5067431;28;20069;-32
2022/10/02 01:05:23;;;;;;;19.67;13.07;;;;;;;17.50;100.00;99446.06;5049475;28;20035;-30
2022/10/02 01:07:51;;;;;;;19.00;12.27;;;;;;;17.58;100.00;99458.97;5048795;28;20527;-29
2022/10/02 01:10:17;;;;;;;;;;;;;;;17.74;100.00;99472.34;5049527;28;20034;-29
2022/10/02 01:12:45;;;;;;;17.05;10.60;;;;;;;17.73;100.00;99481.50;5048567;28;19916;-29
2022/10/02 01:15:17;;;;;;;18.55;10.82;;;;;;;17.63;100.00;99472.41;5067014;28;20481;-28
2022/10/02 01:17:45;;;;;;;21.20;13.02;;;;;;;17.66;100.00;99482.63;5067022;28;20055;-33
2022/10/02 01:20:20;;;;;;;20.00;12.38;;;;;;;17.54;100.00;99473.28;5066943;28;20492;-30
2022/10/02 01:22:51;;;;;;;18.25;12.27;;;;;;;17.53;100.00;99477.88;5067049;28;20032;-30
2022/10/02 01:25:17;;;;;;;18.75;11.90;;;;;;;17.47;100.00;99468.22;5067003;28;20209;-28
2022/10/02 01:27:42;;;;;;;19.55;12.50;;;;;;;17.66;100.00;99481.84;5066905;28;20104;-29
2022/10/02 01:30:12;;;;;;;19.35;12.75;;;;;;;17.63;100.00;99472.41;5066882;28;20031;-28
2022/10/02 01:33:00;;;;;;;20.33;12.52;;;;;;;17.80;100.00;99490.91;5066978;28;20032;-29
2022/10/02 01:35:31;;;;;;;18.20;12.30;;;;;;;17.73;100.00;99486.91;5066824;28;20508;-30
2022/10/02 01:38:00;;;;;;;15.13;10.85;;;;;;;17.59;100.00;99470.53;5048578;28;20024;-28
2022/10/02 01:40:26;;;;;;;16.88;11.32;;;;;;;17.71;100.00;99464.81;5066948;28;20040;-31
2022/10/02 01:42:52;;;;;;;15.10;10.65;;;;;;;17.58;100.00;99441.97;5066813;28;20024;-29
2022/10/02 01:45:26;;;;;;;16.67;11.43;;;;;;;17.34;100.00;99423.00;5066877;28;20086;-29
2022/10/02 01:48:04;;;;;;;17.33;10.63;;;;;;;17.30;100.00;99408.47;5066569;28;20086;-29
2022/10/02 01:50:40;;;;;;;14.55;10.15;;;;;;;17.29;100.00;99396.09;5067094;28;20028;-31
2022/10/02 01:53:12;;;;;;;13.77;9.57;;;;;;;17.16;100.00;99392.94;5050203;28;20029;-30
2022/10/02 01:55:49;;;;;;;12.45;9.30;;;;;;;17.36;100.00;99412.75;5070970;28;20496;-30
2022/10/02 01:59:04;;;;;;;14.40;9.60;;;;;;;17.47;100.00;99430.47;5070529;28;20107;-29
2022/10/02 02:01:43;;;;;;;12.50;8.48;;;;;;;17.51;100.00;99418.03;5056709;28;20143;-28
2022/10/02 02:04:45;;;;;;;11.95;8.05;;;;;;;17.55;100.00;99435.25;5070335;28;20036;-28
2022/10/02 02:07:19;;;;;;;13.13;8.75;;;;;;;17.44;100.00;99425.63;5070474;28;20456;-29
2022/10/02 02:09:54;;;;;;;11.88;8.02;;;;;;;17.62;100.00;99430.34;5070483;28;20035;-30
2022/10/02 02:12:27;;;;;;;10.57;8.23;;;;;;;17.68;100.00;99431.13;5070617;28;20448;-31
2022/10/02 02:15:09;;;;;;;14.15;8.45;;;;;;;17.80;100.00;99436.16;5070471;28;20032;-30
2022/10/02 02:17:51;;;;;;;16.20;8.05;;;;;;;17.90;100.00;99438.81;5070458;28;20029;-32
2022/10/02 02:20:33;;;;;;;13.05;7.30;;;;;;;17.84;100.00;99439.94;5050591;28;20041;-29
2022/10/02 02:23:07;;;;;;;13.63;8.20;;;;;;;17.83;100.00;99459.88;5050502;28;20108;-29
2022/10/02 02:25:37;;;;;;;11.45;7.60;;;;;;;17.98;100.00;99457.09;5050274;28;20110;-28
2022/10/02 02:28:08;;;;;;;13.30;8.48;;;;;;;17.81;100.00;99457.44;5050202;28;20025;-28
2022/10/02 02:30:37;;;;;;;13.45;8.32;;;;;;;17.91;100.00;99467.38;5050501;28;20489;-33
2022/10/02 02:33:37;;;;;;;15.95;8.93;;;;;;;17.71;100.00;99489.88;5050186;28;20032;-32
2022/10/02 02:36:08;;;;;;;12.18;8.77;;;;;;;17.74;100.00;99488.53;5038859;28;20758;-28
2022/10/02 02:38:43;;;;;;;13.77;8.52;;;;;;;17.51;100.00;99519.66;5050197;28;20033;-30
2022/10/02 02:41:13;;;;;;;12.85;8.60;;;;;;;17.30;100.00;99516.25;5050203;28;20385;-27
2022/10/02 02:44:02;;;;;;;12.40;8.02;;;;;;;17.36;100.00;99512.47;5049977;28;20740;-29
2022/10/02 02:47:02;;;;;;;13.48;8.15;;;;;;;17.25;100.00;99525.97;5049836;28;20119;-30
2022/10/02 02:49:26;;;;;;;11.45;8.32;;;;;;;17.45;100.00;99535.88;5049562;28;20479;-29
2022/10/02 02:51:53;;;;;;;;;;;;;;;17.51;100.00;99535.81;5050110;28;20413;-28
2022/10/02 02:54:33;;;;;;;12.02;7.95;;;;;;;17.34;100.00;99530.78;5049885;28;19909;-30
2022/10/02 02:57:03;;;;;;;10.20;7.55;;;;;;;17.49;100.00;99536.13;5049652;28;20677;-28
2022/10/02 02:59:31;;;;;;;11.48;8.27;;;;;;;17.59;100.00;99536.06;5049817;28;20024;-31
2022/10/02 03:01:57;;;;;;;15.00;8.07;;;;;;;17.66;100.00;99541.94;5049320;28;20099;-28
2022/10/02 03:04:23;;;;;;;15.57;8.50;;;;;;;17.77;100.00;99555.38;5048531;28;20033;-28
2022/10/02 03:06:54;;;;;;;13.25;8.38;;;;;;;17.62;100.00;99548.19;5049366;28;20041;-28
2022/10/02 03:09:22;;;;;;;12.38;7.13;;;;;;;17.77;100.00;99555.38;5049247;28;20091;-28
2022/10/02 03:12:08;;;;;;;12.88;8.32;;;;;;;17.75;100.00;99550.25;5049700;28;20083;-28
2022/10/02 03:15:01;;;;;;;10.77;6.65;;;;;;;17.66;100.00;99552.72;5049656;28;20128;-28
2022/10/02 03:17:38;;;;;;;8.43;5.60;;;;;;;17.92;100.00;99571.50;5049234;28;20029;-31
2022/10/02 03:20:13;;;;;;;9.60;5.60;;;;;;;18.07;100.00;99570.59;5049315;28;20063;-33
2022/10/02 03:22:59;;;;;;;9.43;5.55;;;;;;;18.07;100.00;99557.91;5049391;28;20036;-28
2022/10/02 03:25:32;;;;;;;7.82;5.32;;;;;;;18.21;100.00;99578.88;5049089;28;20037;-29
2022/10/02 03:28:09;;;;;;;8.48;5.20;;;;;;;18.24;100.00;99583.69;5048750;28;20041;-30
2022/10/02 03:30:37;;;;;;;7.05;4.20;;;;;;;18.26;100.00;99571.50;5049314;28;20039;-28
2022/10/02 03:33:05;;;;;;;9.38;4.53;;;;;;;18.38;100.00;99600.84;5049325;28;20140;-29
2022/10/02 03:35:31;;;;;;;7.13;3.72;;;;;;;18.42;100.00;99607.31;5048981;28;20037;-29
2022/10/02 03:38:02;;;;;;;6.85;4.30;;;;;;;18.33;100.00;99595.50;5048756;28;20032;-28
2022/10/02 03:40:28;;;;;;;8.95;3.75;;;;;;;18.23;100.00;99595.59;5047286;28;20409;-29
2022/10/02 03:42:57;;;;;;;5.53;3.13;;;;;;;18.21;100.00;99600.47;5049196;28;20093;-29
2022/10/02 03:45:24;;;;;;;6.25;3.20;;;;;;;18.28;100.00;99620.63;5048800;28;20075;-30
2022/10/02 03:47:49;;;;;;;7.97;3.50;;;;;;;18.21;100.00;99628.25;5048414;28;20036;-29
2022/10/02 03:50:15;;;;;;;6.18;3.40;;;;;;;18.12;100.00;99613.72;5048675;28;20037;-30
2022/10/02 03:52:41;;;;;;;5.78;3.30;;;;;;;18.28;100.00;99647.63;5048458;28;20032;-30
2022/10/02 03:55:25;;;;;;;5.50;2.65;;;;;;;18.35;100.00;99647.31;5048202;28;20036;-33
2022/10/02 03:57:53;;;;;;;4.88;2.75;;;;;;;18.31;100.00;99642.75;5047984;28;20112;-30
2022/10/02 04:00:24;;;;;;;5.53;3.13;;;;;;;18.30;100.00;99641.94;5048446;28;20024;-29
2022/10/02 04:03:05;;;;;;;5.65;2.58;;;;;;;18.40;100.00;99649.97;5048739;28;20029;-29
2022/10/02 04:05:52;;;;;;;4.40;2.70;;;;;;;18.34;100.00;99653.78;5048265;28;20132;-32
2022/10/02 04:08:24;;;;;;;8.90;2.77;;;;;;;18.17;100.00;99631.78;5048224;28;20051;-29
2022/10/02 04:11:00;;;;;;;6.72;2.70;;;;;;;18.13;100.00;99646.94;5048084;28;20025;-30
2022/10/02 04:13:53;;;;;;;6.45;4.05;;;;;;;18.11;100.00;99627.50;5048169;28;20041;-29
2022/10/02 04:16:33;;;;;;;4.65;2.80;;;;;;;18.19;100.00;99645.81;5047787;28;20115;-29
2022/10/02 04:18:59;;;;;;;5.88;2.60;;;;;;;18.21;100.00;99654.44;5048056;28;20104;-32
2022/10/02 04:21:42;;;;;;;5.65;2.78;;;;;;;18.13;100.00;99636.94;5030074;28;20139;-29
2022/10/02 04:24:10;;;;;;;7.07;2.78;;;;;;;18.26;100.00;99657.09;5047940;28;20021;-30
2022/10/02 04:26:43;;;;;;;6.15;3.20;;;;;;;18.22;100.00;99661.44;5048159;28;20036;-28
2022/10/02 04:29:23;;;;;;;5.78;2.78;;;;;;;18.15;100.00;99652.84;5048006;28;20051;-31
2022/10/02 04:31:58;;;;;;;5.53;3.20;;;;;;;18.10;100.00;99674.47;5047790;28;20040;-29
2022/10/02 04:34:27;;;;;;;4.70;2.50;;;;;;;18.10;100.00;99661.75;5047810;28;20021;-30
2022/10/02 04:37:37;;;;;;;4.13;2.17;;;;;;;18.06;100.00;99669.63;5047573;28;20040;-29
2022/10/02 04:40:49;;;;;;;4.43;2.80;;;;;;;18.05;100.00;99668.00;5047487;28;20027;-31
2022/10/02 04:43:26;;;;;;;4.57;2.53;;;;;;;18.07;100.00;99671.22;5047851;28;20090;-29
2022/10/02 04:46:22;;;;;;;6.38;2.50;;;;;;;18.03;100.00;99691.75;5048003;28;20428;-31
2022/10/02 04:49:12;;;;;;;8.60;2.90;;;;;;;18.04;99.01;99693.38;5047817;28;20028;-28
2022/10/02 04:52:03;;;;;;;3.45;2.33;;;;;;;17.93;97.78;99685.59;5047722;28;20028;-28
2022/10/02 04:54:43;;;;;;;4.30;2.03;;;;;;;17.98;95.98;99694.50;5047692;28;20051;-32
2022/10/02 04:57:18;;;;;;;3.85;1.80;;;;;;;17.86;94.86;99680.53;5047643;28;20180;-29
2022/10/02 05:00:05;;;;;;;5.30;2.20;;;;;;;17.87;95.45;99709.09;5047334;28;20121;-32
2022/10/02 05:02:51;;;;;;;4.30;1.63;;;;;;;17.91;94.52;99693.16;5047677;28;20060;-32
2022/10/02 05:05:23;;;;;;;3.83;1.63;;;;;;;17.77;94.66;99698.31;5047521;28;20041;-32
2022/10/02 05:07:48;;;;;;;4.70;1.63;;;;;;;17.65;94.44;99701.31;5045453;28;20128;-32
2022/10/02 05:10:13;;;;;;;4.20;1.52;;;;;;;17.73;92.63;99702.66;5047202;28;20446;-29
2022/10/02 05:13:11;;;;;;;3.72;1.80;;;;;;;17.71;93.39;99712.91;5047941;28;20090;-29
2022/10/02 05:15:43;;;;;;;1.95;1.30;;;;;;;17.59;92.63;99700.53;5047198;28;20053;-29
2022/10/02 05:18:16;;;;;;;3.67;1.88;;;;;;;17.58;92.33;99682.72;5045336;28;20091;-28
2022/10/02 05:21:12;;;;;;;2.45;1.42;;;;;;;17.74;90.91;99694.28;5047667;28;20105;-28
2022/10/02 05:24:12;;;;;;;3.55;1.40;;;;;;;17.72;89.68;99692.94;5046935;28;20028;-32
2022/10/02 05:26:49;;;;;;;3.60;1.33;;;;;;;17.86;89.88;99726.38;5046683;28;20117;-29
2022/10/02 05:29:30;;;;;;;4.30;1.30;;;;;;;18.04;88.16;99720.38;5045503;28;20420;-28
2022/10/02 05:32:04;;;;;;;2.75;1.45;;;;;;;18.13;87.40;99723.28;5046862;28;20036;-28
2022/10/02 05:34:45;;;;;;;2.88;1.30;;;;;;;18.19;87.06;99734.88;5046888;28;20044;-28
2022/10/02 05:37:45;;;;;;;3.58;1.70;;;;;;;18.17;86.99;99734.34;5046549;28;20067;-27
2022/10/02 05:40:17;;;;;;;4.70;1.85;;;;;;;18.15;86.75;99734.63;5047238;28;20033;-26
2022/10/02 05:43:02;;;;;;;4.45;1.70;;;;;;;18.22;87.26;99745.09;5046817;28;20056;-28
2022/10/02 05:45:38;;;;;;;3.67;1.80;;;;;;;17.93;87.22;99737.66;5045879;28;20048;-30
2022/10/02 05:48:16;;;;;;;3.33;1.70;;;;;;;17.79;86.34;99733.91;5046760;28;20037;-28
2022/10/02 05:50:44;;;;;;;;;;;;;;;17.81;87.98;99764.09;5047246;28;20028;-31
2022/10/02 05:53:18;;;;;;;5.22;2.25;;;;;;;17.78;87.91;99760.06;5046733;28;19913;-29
2022/10/02 05:55:58;;;;;;;6.22;2.28;;;;;;;17.64;88.17;99754.44;5047190;28;20084;-28
2022/10/02 05:58:30;;;;;;;4.82;2.65;;;;;;;17.70;87.56;99763.34;5046816;28;20029;-27
2022/10/02 06:01:09;;;;;;;4.75;2.78;;;;;;;17.76;87.51;99772.22;5046758;28;20029;-29
2022/10/02 06:03:47;;;;;;;4.55;2.45;;;;;;;17.74;87.26;99785.19;5028653;28;20109;-29
2022/10/02 06:06:16;;;;;;;5.00;2.65;;;;;;;17.96;87.93;99788.38;5012745;28;20049;-28
2022/10/02 06:08:42;;;;;;;5.75;2.60;;;;;;;18.35;86.28;99790.41;5044993;28;20031;-27
2022/10/02 06:11:14;;;;;;;4.05;2.50;;;;;;;18.58;84.00;99798.94;5046750;28;20025;-31
2022/10/02 06:13:47;;;;;;;3.95;2.50;;;;;;;18.80;82.83;99815.56;5046430;28;20404;-28
2022/10/02 06:16:34;;;;;;;4.30;2.38;;;;;;;18.83;82.47;99816.91;5046791;28;20139;-27
2022/10/02 06:19:10;;;;;;;7.10;4.70;;;;;;;18.82;81.02;99810.69;5046357;28;20691;-27
2022/10/02 06:21:40;;;;;;;4.00;2.53;;;;;;;18.84;81.54;99810.44;5046644;28;20033;-28
2022/10/02 06:24:15;;;;;;;4.40;2.50;;;;;;;19.13;81.77;99821.28;5046188;28;20040;-29
2022/10/02 06:27:03;;;;;;;5.07;3.15;;;;;;;19.42;81.15;99832.16;5046704;28;20082;-29
2022/10/02 06:30:05;;;;;;;4.68;2.50;;;;;;;19.59;80.81;99817.41;5044615;28;20591;-27
2022/10/02 06:32:56;;;;;;;3.10;2.50;;;;;;;19.70;80.45;99828.94;4984370;28;20043;-28
2022/10/02 06:36:03;;;;;;;5.60;3.17;;;;;;;19.80;79.51;99818.84;5039029;28;20594;-33
2022/10/02 06:39:06;;;;;;;4.75;3.05;;;;;;;19.96;78.57;99824.94;5025471;28;20056;-34
2022/10/02 06:41:49;;;;;;;4.35;2.92;;;;;;;20.02;77.62;99821.06;5049934;28;20024;-30
2022/10/02 06:44:28;;;;;;;4.82;2.70;;;;;;;19.87;77.93;99807.69;5050068;28;20036;-28
2022/10/02 06:47:05;;;;;;;4.40;2.60;;;;;;;19.92;76.13;99818.47;5049957;28;20032;-29
2022/10/02 06:49:39;;;;;;;5.88;2.72;;;;;;;20.15;76.83;99832.31;5049802;28;20075;-30
2022/10/02 06:52:20;;;;;;;5.60;2.85;;;;;;;20.17;76.70;99801.13;5049666;28;20028;-28
2022/10/02 06:55:04;;;;;;;4.75;3.13;;;;;;;20.43;76.25;99826.00;5032776;28;20070;-28
2022/10/02 06:57:47;;;;;;;5.18;3.10;;;;;;;20.63;74.51;99824.13;5049765;28;20570;-29
2022/10/02 07:00:20;;;;;;;5.30;2.95;;;;;;;20.67;74.42;99817.03;5049936;28;20029;-28
2022/10/02 07:03:08;;;;;;;4.55;2.80;;;;;;;20.73;73.73;99815.88;5031877;28;20435;-27
2022/10/02 07:05:52;;;;;;;5.63;3.10;;;;;;;20.75;73.62;99818.28;5049859;28;20076;-27
2022/10/02 07:08:29;;;;;;;3.65;2.70;;;;;;;20.81;73.15;99817.91;5049748;28;20716;-28
2022/10/02 07:11:17;;;;;;;4.15;2.85;;;;;;;20.85;70.48;99810.81;5049345;28;20484;-30
2022/10/02 07:14:07;;;;;;;4.88;2.95;;;;;;;20.91;70.57;99819.69;5048273;28;20520;-29
2022/10/02 07:16:53;;;;;;;4.25;3.08;;;;;;;20.75;70.80;99818.28;5049706;28;20068;-31
2022/10/02 07:20:14;;;;;;;6.95;3.13;;;;;;;20.64;69.86;99804.09;5049098;28;20087;-28
2022/10/02 07:22:39;;;;;;;8.32;3.10;;;;;;;20.83;70.43;99825.75;4983666;28;20593;-29
2022/10/02 07:25:38;;;;;;;7.32;2.95;;;;;;;20.72;69.64;99827.81;5049704;28;20040;-27
2022/10/02 07:28:04;;;;;;;5.00;3.17;;;;;;;21.03;69.20;99833.59;5047558;28;20140;-30
2022/10/02 07:30:52;;;;;;;8.02;3.10;;;;;;;21.19;67.58;99825.25;5049300;28;20078;-28
2022/10/02 07:33:32;;;;;;;3.92;2.28;;;;;;;21.23;67.20;99805.38;5048984;28;20459;-29
2022/10/02 07:36:32;;;;;;;8.00;2.75;;;;;;;21.33;66.17;99787.28;5047181;28;20028;-30
2022/10/02 07:39:34;;;;;;;4.35;2.30;;;;;;;21.54;65.84;99801.38;5026812;28;20044;-29
2022/10/02 07:42:20;;;;;;;5.40;2.42;;;;;;;21.71;61.71;99770.94;5048616;28;20807;-29
2022/10/02 07:45:21;;;;;;;8.07;2.58;;;;;;;21.46;63.05;99775.72;5048957;28;20048;-33
2022/10/02 07:48:06;;;;;;;6.22;2.67;;;;;;;21.59;63.08;99774.91;4967065;28;20558;-35
2022/10/02 07:50:44;;;;;;;11.27;4.72;;;;;;;21.41;63.47;99797.47;5041711;28;20045;-28
2022/10/02 07:53:16;;;;;;;7.45;2.60;;;;;;;21.55;61.65;99833.59;5048727;28;20025;-29
2022/10/02 07:55:47;;;;;;;3.63;2.42;;;;;;;21.60;61.80;99825.38;5048796;28;20064;-28
2022/10/02 07:58:17;;;;;;;3.92;2.17;;;;;;;21.73;60.24;99828.44;5048618;28;20465;-33
2022/10/02 08:00:59;;;;;;;6.03;2.33;;;;;;;21.51;58.11;99816.31;5048541;28;20039;-32
2022/10/02 08:03:34;;;;;;;4.85;2.10;;;;;;;21.54;58.88;99818.44;5048445;28;20039;-28
2022/10/02 08:06:00;;;;;;;3.35;1.65;;;;;;;21.60;58.77;99830.81;5048128;28;20091;-28
2022/10/02 08:08:43;;;;;;;7.68;2.33;;;;;;;22.04;59.96;99851.19;5048334;28;20017;-33
2022/10/02 08:11:20;;;;;;;4.43;2.25;;;;;;;22.31;57.49;99844.16;5048261;28;20548;-28
2022/10/02 08:13:57;;;;;;;4.68;2.15;;;;;;;22.31;57.40;99852.31;5048174;28;20025;-35
2022/10/02 08:16:26;;;;;;;5.47;2.10;;;;;;;22.05;57.74;99841.94;5030477;28;20175;-28
2022/10/02 08:19:01;;;;;;;3.75;2.25;;;;;;;22.38;56.83;99877.19;5048232;28;20068;-30
2022/10/02 08:21:32;;;;;;;4.55;2.10;;;;;;;22.82;56.14;99883.91;5030147;28;20150;-36
2022/10/02 08:24:13;;;;;;;4.35;2.30;;;;;;;22.64;53.47;99873.97;5029724;28;20040;-31
2022/10/02 08:27:07;;;;;;;5.70;2.13;;;;;;;22.81;53.95;99874.13;5048181;28;20148;-35
2022/10/02 08:29:41;;;;;;;3.70;1.88;;;;;;;22.82;51.42;99875.72;5048459;28;20112;-28
2022/10/02 08:32:10;;;;;;;2.33;1.50;;;;;;;22.76;50.58;99868.81;5047570;28;20522;-29
2022/10/02 08:34:36;;;;;;;4.63;1.92;;;;;;;22.92;52.28;99868.44;5029908;28;20029;-30
2022/10/02 08:37:20;;;;;;;6.22;2.10;;;;;;;22.87;50.90;99867.44;5047761;28;20037;-32
2022/10/02 08:39:58;;;;;;;3.95;1.90;;;;;;;22.93;51.65;99845.59;5047878;28;20064;-35
2022/10/02 08:42:57;;;;;;;3.20;1.63;;;;;;;23.17;50.58;99854.31;5047788;28;20036;-28
2022/10/02 08:45:41;;;;;;;5.72;2.25;;;;;;;23.15;51.11;99840.22;5047522;28;20060;-29
2022/10/02 08:48:09;;;;;;;5.78;2.13;;;;;;;23.12;49.28;99840.81;5047519;28;20499;-35
2022/10/02 08:51:05;;;;;;;5.47;2.03;;;;;;;23.05;49.90;99837.72;5047325;28;20103;-28
2022/10/02 08:54:02;;;;;;;6.57;1.95;;;;;;;23.06;49.31;99878.19;5047295;28;20029;-30
2022/10/02 08:56:37;;;;;;;;;;;;;;;22.95;47.27;99857.78;5047256;28;20044;-30
2022/10/02 08:59:05;;;;;;;4.07;1.50;;;;;;;23.17;46.33;99865.19;5047061;28;20751;-31
2022/10/02 09:01:45;;;;;;;3.50;1.83;;;;;;;23.27;45.59;99884.00;5045665;28;20078;-29
2022/10/02 09:04:39;;;;;;;2.03;1.48;;;;;;;23.54;45.46;99890.44;5046651;28;20029;-27
2022/10/02 09:07:32;;;;;;;2.90;1.95;;;;;;;23.51;45.98;99863.81;5047101;28;20559;-30
2022/10/02 09:10:12;;;;;;;5.40;2.95;;;;;;;23.37;44.93;99868.53;5045680;28;20033;-28
2022/10/02 09:12:38;;;;;;;6.57;1.83;;;;;;;23.24;44.95;99867.47;5047202;28;20124;-32
2022/10/02 09:15:17;;;;;;;5.22;1.63;;;;;;;23.09;44.21;99867.81;5047189;28;20029;-28
2022/10/02 09:17:44;;;;;;;5.00;2.00;;;;;;;23.26;44.17;99868.78;5028881;28;20146;-31
2022/10/02 09:20:20;;;;;;;1.90;1.52;;;;;;;23.66;43.35;99843.59;5046696;28;20029;-31
2022/10/02 09:23:10;;;;;;;5.03;1.45;;;;;;;23.62;42.83;99846.13;5047254;28;20035;-28
2022/10/02 09:26:00;;;;;;;1.60;1.20;;;;;;;23.52;41.56;99842.84;5047237;28;20111;-31
2022/10/02 09:28:50;;;;;;;2.45;1.10;;;;;;;23.59;39.61;99849.47;5046691;28;20037;-31
2022/10/02 09:31:33;;;;;;;3.53;1.10;;;;;;;23.59;40.97;99856.84;5046930;28;20056;-29
2022/10/02 09:34:18;;;;;;;2.30;1.17;;;;;;;23.38;39.91;99843.72;5046401;28;20116;-28
2022/10/02 09:36:49;;;;;;;2.92;1.20;;;;;;;23.58;40.53;99857.94;5046549;28;20024;-29
2022/10/02 09:39:52;;;;;;;2.20;1.15;;;;;;;23.72;39.04;99846.97;5028477;28;20040;-30
2022/10/02 09:42:36;;;;;;;4.18;1.40;;;;;;;23.57;38.66;99854.41;5045113;28;20051;-28
2022/10/02 09:45:06;;;;;;;2.90;1.02;;;;;;;24.13;40.17;99862.25;5046579;28;20029;-28
2022/10/02 09:48:09;;;;;;;4.15;1.20;;;;;;;23.94;38.74;99846.94;5045299;28;20103;-28
2022/10/02 09:51:12;;;;;;;2.65;1.40;;;;;;;24.04;38.03;99873.91;5014558;28;20037;-28
2022/10/02 09:54:20;;;;;;;2.55;1.10;;;;;;;24.26;38.32;99888.59;5046373;28;20029;-29
2022/10/02 09:57:05;;;;;;;2.97;1.20;;;;;;;24.31;37.45;99891.16;5043304;28;20041;-30
2022/10/02 09:59:52;;;;;;;3.88;1.42;;;;;;;24.02;36.85;99884.31;5046297;28;20508;-31
2022/10/02 10:02:38;;;;;;;1.13;0.80;;;;;;;23.95;35.46;99875.00;5046519;28;20102;-28
2022/10/02 10:05:39;;;;;;;3.03;0.80;;;;;;;24.27;31.68;99896.47;5046642;28;20037;-31
2022/10/02 10:08:36;;;;;;;2.70;0.50;;;;;;;24.31;30.17;99884.91;4997349;28;20049;-32
2022/10/02 10:11:32;;;;;;;3.95;0.52;;;;;;;24.41;30.08;99899.06;5046574;28;20033;-29
2022/10/02 10:14:23;;;;;;;2.67;0.47;;;;;;;24.73;29.78;99897.09;5029195;28;20532;-30
2022/10/02 10:17:25;;;;;;;2.17;0.40;;;;;;;24.75;30.47;99894.06;5032628;28;20487;-28
2022/10/02 10:20:03;;;;;;;1.25;0.40;;;;;;;24.73;29.84;99891.66;5048715;28;20029;-29
2022/10/02 10:22:28;;;;;;;;;;;;;;;25.20;29.51;99875.47;5050582;28;20021;-28
2022/10/02 10:25:09;;;;;;;1.92;0.50;;;;;;;25.35;28.79;99895.25;5048709;28;19921;-29
2022/10/02 10:27:52;;;;;;;2.33;0.40;;;;;;;25.22;28.10;99897.81;5050174;28;20033;-28
2022/10/02 10:30:36;;;;;;;0.52;0.20;;;;;;;25.31;27.87;99919.66;5050359;28;20520;-29
2022/10/02 10:33:24;;;;;;;2.28;0.45;;;;;;;25.35;27.82;99901.50;5049879;28;20047;-29
2022/10/02 10:39:51;;;;;;;2.42;0.40;;;;;;;25.78;27.58;99888.91;5049943;28;20562;-30
2022/10/02 10:42:35;;;;;;;0.70;0.30;;;;;;;25.30;27.34;99909.06;5031965;28;20041;-32
2022/10/02 10:45:22;;;;;;;2.55;0.45;;;;;;;25.46;28.03;99902.00;5049877;28;20416;-31
2022/10/02 10:47:57;;;;;;;1.38;0.35;;;;;;;25.32;28.42;99898.63;5031765;28;20036;-29
2022/10/02 10:50:37;;;;;;;0.90;0.30;;;;;;;25.82;28.36;99901.59;5048432;28;20116;-29
2022/10/02 10:53:18;;;;;;;0.73;0.57;;;;;;;25.61;29.75;99887.81;5031628;28;20064;-28
2022/10/02 10:56:12;;;;;;;0.90;0.60;;;;;;;25.30;30.22;99884.50;5049585;28;20029;-28
2022/10/02 10:59:18;;;;;;;1.80;0.70;;;;;;;25.60;31.14;99912.72;5049322;28;20041;-30
2022/10/02 11:02:19;;;;;;;3.08;0.80;;;;;;;25.45;31.54;99905.84;4987701;28;20054;-33
2022/10/02 11:04:51;;;;;;;5.30;0.82;;;;;;;25.17;31.40;99903.41;5031462;28;20044;-33
2022/10/02 11:07:36;;;;;;;1.10;0.70;;;;;;;25.33;30.74;99897.50;5049335;28;20041;-33
2022/10/02 11:10:06;;;;;;;2.85;0.77;;;;;;;25.77;28.87;99899.06;5047475;28;20029;-34
2022/10/02 11:12:54;;;;;;;2.13;0.40;;;;;;;25.18;27.62;99901.50;5047735;28;20068;-29
2022/10/02 11:15:44;;;;;;;4.85;0.50;;;;;;;24.95;28.40;99903.56;5047951;28;20106;-29
2022/10/02 11:18:15;;;;;;;1.73;0.35;;;;;;;25.42;27.79;99906.50;5048858;28;20025;-29
2022/10/02 11:21:28;;;;;;;2.40;0.32;;;;;;;25.77;26.54;99912.69;5049346;28;20111;-29
2022/10/02 11:24:21;;;;;;;4.00;0.40;;;;;;;25.51;26.46;99918.19;4970618;28;20037;-29
2022/10/02 11:26:56;;;;;;;4.07;0.32;;;;;;;25.85;26.25;99925.53;5030057;28;20025;-31
2022/10/02 11:30:12;;;;;;;2.05;0.30;;;;;;;25.92;26.45;99952.38;5048917;28;20103;-28
2022/10/02 11:33:14;;;;;;;1.95;0.55;;;;;;;26.46;26.35;99952.72;5023062;28;20060;-33
2022/10/02 11:35:47;;;;;;;1.85;0.30;;;;;;;25.95;26.58;99937.28;5048788;28;20041;-32
2022/10/02 11:38:37;;;;;;;2.10;0.50;;;;;;;26.16;27.00;99949.13;5048849;28;20044;-29
2022/10/02 11:41:25;;;;;;;4.28;0.65;;;;;;;26.33;25.68;99940.03;5047602;28;20717;-30
2022/10/02 11:43:59;;;;;;;0.55;0.30;;;;;;;25.70;26.65;99960.75;5030212;28;20790;-29
2022/10/02 11:46:27;;;;;;;10.68;1.25;;;;;;;26.04;27.00;99949.00;5047248;28;20086;-30
2022/10/02 11:49:11;;;;;;;6.05;0.40;;;;;;;25.92;26.45;99952.38;5048536;28;20037;-32
2022/10/02 11:51:39;;;;;;;0.95;0.20;;;;;;;25.82;26.99;99952.69;5048668;28;20036;-30
2022/10/02 11:54:43;;;;;;;1.63;0.15;;;;;;;25.81;27.20;99940.19;5048315;28;20029;-28
2022/10/02 11:57:33;;;;;;;2.53;0.30;;;;;;;25.51;26.53;99931.84;5048230;28;20024;-31
2022/10/02 12:00:30;;;;;;;0.90;0.30;;;;;;;26.14;26.37;99932.25;5048167;28;20029;-28
2022/10/02 12:03:14;;;;;;;7.88;0.93;;;;;;;26.14;26.48;99931.44;5048514;28;20056;-29
2022/10/02 12:05:54;;;;;;;3.83;0.47;;;;;;;25.88;26.91;99910.41;5048211;28;20121;-29
2022/10/02 12:09:24;;;;;;;1.38;0.30;;;;;;;25.88;26.58;99913.16;5046907;28;20516;-29
2022/10/02 12:12:26;;;;;;;1.80;0.50;;;;;;;26.18;26.36;99885.94;4986034;28;20494;-30
2022/10/02 12:15:14;;;;;;;1.65;0.35;;;;;;;25.95;25.74;99902.56;4969904;28;20096;-31
2022/10/02 12:17:52;;;;;;;;;;;;;;;26.70;26.14;99904.03;5048648;28;20063;-29
2022/10/02 12:27:08;;;;;;;6.18;3.13;;;;;;;26.25;25.31;99900.69;5048217;28;20036;-29
2022/10/02 12:29:39;;;;;;;23.27;14.35;;;;;;;25.99;26.18;99933.59;5046291;28;20033;-31
2022/10/02 12:32:34;;;;;;;40.00;22.42;;;;;;;26.29;26.57;99900.03;5047892;28;20558;-31
2022/10/02 12:35:26;;;;;;;19.17;11.48;;;;;;;26.61;25.75;99912.28;5047773;28;20037;-28
2022/10/02 12:37:54;;;;;;;0.75;0.45;;;;;;;26.79;25.52;99907.53;5028974;28;20025;-31
2022/10/02 12:40:40;;;;;;;5.60;1.88;;;;;;;26.91;25.15;99915.00;5046396;28;20035;-30
2022/10/02 12:43:27;;;;;;;5.95;1.08;;;;;;;27.41;25.14;99925.13;5046131;28;20033;-30